Time;durP1;ratioP1;P1;durP2;ratioP2;P2;SDS_P1;SDS_P2;PMS_P1;PMS_P2;Temp;Humidity;BMP_temperature;BMP_pressure;BME280_temperature;BME280_humidity;BME280_pressure;Samples;Min_cycle;Max_cycle;Signal;HPM_P1;HPM_P2
2021/05/24 00:00:20;;;;;;;3.30;1.50;;;;;;;;;;5093338;28;20024;-48
2021/05/24 00:02:47;;;;;;;4.32;1.90;;;;;;;;;;5093481;28;20024;-48
2021/05/24 00:05:14;;;;;;;2.53;1.48;;;;;;;;;;5093756;28;20400;-48
2021/05/24 00:07:41;;;;;;;1.52;1.42;;;;;;;;;;5093746;28;20020;-48
2021/05/24 00:10:08;;;;;;;4.70;1.98;;;;;;;;;;5093332;28;20031;-48
2021/05/24 00:12:35;;;;;;;3.83;1.70;;;;;;;;;;5093697;28;20056;-48
2021/05/24 00:15:01;;;;;;;6.18;1.60;;;;;;;;;;5093261;28;20105;-49
2021/05/24 00:17:27;;;;;;;2.78;1.42;;;;;;;;;;5093563;28;20020;-48
2021/05/24 00:19:53;;;;;;;3.30;1.52;;;;;;;;;;5093724;28;20016;-49
2021/05/24 00:22:19;;;;;;;2.25;1.60;;;;;;;;;;5092998;28;20024;-49
2021/05/24 00:24:45;;;;;;;6.10;2.22;;;;;;;;;;5093548;28;20028;-48
2021/05/24 00:27:12;;;;;;;4.75;1.55;;;;;;;;;;5093268;28;20016;-48
2021/05/24 00:29:38;;;;;;;3.13;1.50;;;;;;;;;;5093016;28;20062;-49
2021/05/24 00:32:05;;;;;;;3.42;1.40;;;;;;;;;;5092884;28;20466;-48
2021/05/24 00:34:30;;;;;;;2.22;1.50;;;;;;;;;;5093435;28;20024;-48
2021/05/24 00:36:57;;;;;;;4.55;1.55;;;;;;;;;;5092976;28;20384;-48
2021/05/24 00:39:23;;;;;;;1.33;1.15;;;;;;;;;;5093029;28;20030;-49
2021/05/24 00:41:50;;;;;;;2.25;1.60;;;;;;;;;;5092576;28;20026;-48
2021/05/24 00:44:16;;;;;;;3.50;1.20;;;;;;;;;;5092890;28;20040;-48
2021/05/24 00:46:42;;;;;;;2.42;1.10;;;;;;;;;;5093203;28;20103;-48
2021/05/24 00:49:08;;;;;;;2.67;1.60;;;;;;;;;;5093409;28;20028;-48
2021/05/24 00:51:35;;;;;;;3.28;1.42;;;;;;;;;;5092391;28;20032;-48
2021/05/24 00:54:01;;;;;;;3.53;1.38;;;;;;;;;;5093076;28;20024;-48
2021/05/24 00:56:27;;;;;;;2.67;1.52;;;;;;;;;;5092622;28;20115;-48
2021/05/24 00:58:53;;;;;;;4.72;1.35;;;;;;;;;;5092980;28;20024;-48
2021/05/24 01:01:20;;;;;;;4.95;1.45;;;;;;;;;;5092299;28;20031;-49
2021/05/24 01:03:46;;;;;;;1.80;1.20;;;;;;;;;;5092734;28;20024;-49
2021/05/24 01:06:12;;;;;;;2.30;1.45;;;;;;;;;;5092685;28;20028;-48
2021/05/24 01:08:38;;;;;;;3.53;1.50;;;;;;;;;;5076638;28;20016;-48
2021/05/24 01:11:04;;;;;;;6.38;1.55;;;;;;;;;;5071673;28;20024;-48
2021/05/24 01:13:31;;;;;;;3.10;1.17;;;;;;;;;;5072320;28;20045;-49
2021/05/24 01:15:57;;;;;;;4.70;1.58;;;;;;;;;;5072367;28;20021;-48
2021/05/24 01:18:23;;;;;;;1.75;1.02;;;;;;;;;;5072007;28;20039;-48
2021/05/24 01:20:49;;;;;;;1.83;1.38;;;;;;;;;;5072016;28;20024;-49
2021/05/24 01:23:17;;;;;;;2.85;1.55;;;;;;;;;;5072097;28;20078;-48
2021/05/24 01:25:44;;;;;;;5.82;2.17;;;;;;;;;;5071546;28;20037;-49
2021/05/24 01:28:12;;;;;;;4.30;1.92;;;;;;;;;;5072111;28;20020;-49
2021/05/24 01:30:38;;;;;;;3.60;2.13;;;;;;;;;;5071514;28;20040;-48
2021/05/24 01:33:04;;;;;;;3.38;1.85;;;;;;;;;;5071835;28;20032;-48
2021/05/24 01:35:30;;;;;;;4.88;2.05;;;;;;;;;;5071551;28;20033;-48
2021/05/24 01:37:56;;;;;;;3.20;1.38;;;;;;;;;;5071421;28;20475;-48
2021/05/24 01:40:23;;;;;;;3.58;1.48;;;;;;;;;;5082483;28;20071;-48
2021/05/24 01:42:53;;;;;;;2.70;1.50;;;;;;;;;;5091927;28;20035;-49
2021/05/24 01:45:19;;;;;;;4.32;1.70;;;;;;;;;;5091706;28;20047;-48
2021/05/24 01:47:45;;;;;;;5.45;1.77;;;;;;;;;;5092127;28;20020;-49
2021/05/24 01:50:12;;;;;;;1.77;1.30;;;;;;;;;;5091941;28;20113;-48
2021/05/24 01:52:38;;;;;;;2.13;1.40;;;;;;;;;;5091580;28;20024;-49
2021/05/24 01:55:05;;;;;;;1.10;1.00;;;;;;;;;;5091808;28;20035;-48
2021/05/24 01:57:31;;;;;;;3.72;1.30;;;;;;;;;;5091742;28;20657;-49
2021/05/24 01:59:57;;;;;;;4.03;1.17;;;;;;;;;;5091830;28;20259;-48
2021/05/24 02:02:23;;;;;;;1.25;1.15;;;;;;;;;;5091228;28;20028;-48
2021/05/24 02:04:49;;;;;;;1.42;1.33;;;;;;;;;;5091473;28;20665;-49
2021/05/24 02:07:15;;;;;;;2.08;1.40;;;;;;;;;;5086809;28;20058;-49
2021/05/24 02:09:41;;;;;;;6.45;1.40;;;;;;;;;;5071448;28;20064;-48
2021/05/24 02:12:07;;;;;;;1.90;1.20;;;;;;;;;;5071015;28;20074;-48
2021/05/24 02:14:33;;;;;;;2.13;1.00;;;;;;;;;;5070589;28;20741;-48
2021/05/24 02:16:59;;;;;;;5.18;1.40;;;;;;;;;;5071142;28;20386;-48
2021/05/24 02:19:26;;;;;;;2.25;1.17;;;;;;;;;;5081794;28;20498;-48
2021/05/24 02:21:52;;;;;;;3.28;1.50;;;;;;;;;;5091027;28;20056;-48
2021/05/24 02:24:18;;;;;;;2.28;1.60;;;;;;;;;;5091300;28;20032;-48
2021/05/24 02:26:45;;;;;;;2.00;1.30;;;;;;;;;;5091255;28;20107;-48
2021/05/24 02:29:12;;;;;;;3.45;1.67;;;;;;;;;;5090999;28;20123;-48
2021/05/24 02:31:38;;;;;;;1.92;1.10;;;;;;;;;;5090910;28;20050;-49
2021/05/24 02:34:05;;;;;;;3.60;1.35;;;;;;;;;;5090625;28;20024;-49
2021/05/24 02:36:32;;;;;;;4.93;1.30;;;;;;;;;;5091089;28;20036;-48
2021/05/24 02:38:58;;;;;;;3.20;1.42;;;;;;;;;;5091336;28;20020;-49
2021/05/24 02:41:24;;;;;;;3.08;1.33;;;;;;;;;;5090265;28;20031;-48
2021/05/24 02:43:50;;;;;;;3.97;1.48;;;;;;;;;;5090737;28;20030;-48
2021/05/24 02:46:16;;;;;;;1.35;1.17;;;;;;;;;;5091303;28;20066;-48
2021/05/24 02:48:42;;;;;;;0.98;0.88;;;;;;;;;;5090626;28;20020;-48
2021/05/24 02:51:08;;;;;;;2.72;1.60;;;;;;;;;;5090829;28;20483;-49
2021/05/24 02:53:34;;;;;;;1.73;1.40;;;;;;;;;;5090927;28;20020;-49
2021/05/24 02:56:00;;;;;;;4.43;1.50;;;;;;;;;;5090605;28;20035;-48
2021/05/24 02:58:26;;;;;;;2.40;1.52;;;;;;;;;;5091092;28;20028;-48
2021/05/24 03:00:53;;;;;;;2.35;1.10;;;;;;;;;;5090615;28;20020;-48
2021/05/24 03:03:21;;;;;;;5.18;1.38;;;;;;;;;;5090471;28;20024;-49
2021/05/24 03:05:47;;;;;;;2.38;1.27;;;;;;;;;;5091082;28;20065;-49
2021/05/24 03:08:13;;;;;;;1.30;1.05;;;;;;;;;;5090898;28;20441;-48
2021/05/24 03:10:41;;;;;;;1.77;1.08;;;;;;;;;;5090544;28;20024;-48
2021/05/24 03:13:08;;;;;;;2.42;0.90;;;;;;;;;;5090750;28;20020;-49
2021/05/24 03:15:34;;;;;;;4.72;1.33;;;;;;;;;;5090912;28;20082;-49
2021/05/24 03:18:00;;;;;;;3.70;1.40;;;;;;;;;;5090866;28;20426;-49
2021/05/24 03:20:26;;;;;;;3.55;1.10;;;;;;;;;;5090426;28;20050;-48
2021/05/24 03:22:52;;;;;;;3.30;1.20;;;;;;;;;;5090953;28;20020;-48
2021/05/24 03:25:19;;;;;;;3.10;1.77;;;;;;;;;;5090791;28;20408;-48
2021/05/24 03:27:45;;;;;;;3.47;1.65;;;;;;;;;;5094333;28;20039;-48
2021/05/24 03:30:12;;;;;;;1.83;1.42;;;;;;;;;;5094085;28;20109;-49
2021/05/24 03:32:38;;;;;;;2.38;1.52;;;;;;;;;;5094500;28;20388;-48
2021/05/24 03:35:05;;;;;;;4.63;1.38;;;;;;;;;;5094632;28;20020;-48
2021/05/24 03:37:31;;;;;;;7.30;1.20;;;;;;;;;;5094335;28;20032;-48
2021/05/24 03:39:57;;;;;;;6.18;1.35;;;;;;;;;;5094281;28;20107;-48
2021/05/24 03:42:23;;;;;;;1.25;1.00;;;;;;;;;;5094374;28;20020;-48
2021/05/24 03:44:50;;;;;;;1.35;1.20;;;;;;;;;;5094086;28;20095;-48
2021/05/24 03:47:16;;;;;;;4.65;1.23;;;;;;;;;;5093994;28;20115;-49
2021/05/24 03:49:45;;;;;;;2.30;1.30;;;;;;;;;;5094144;28;20023;-48
2021/05/24 03:52:15;;;;;;;1.25;1.10;;;;;;;;;;5093693;28;20494;-49
2021/05/24 03:54:41;;;;;;;1.80;1.20;;;;;;;;;;5093902;28;20031;-49
2021/05/24 03:57:08;;;;;;;2.80;1.20;;;;;;;;;;5094107;28;20020;-48
2021/05/24 03:59:35;;;;;;;2.92;1.40;;;;;;;;;;5093751;28;20242;-49
2021/05/24 04:02:01;;;;;;;4.00;1.10;;;;;;;;;;5093728;28;20030;-49
2021/05/24 04:04:27;;;;;;;2.08;1.40;;;;;;;;;;5093778;28;20051;-49
2021/05/24 04:06:57;;;;;;;4.47;1.30;;;;;;;;;;5092658;28;20053;-48
2021/05/24 04:09:23;;;;;;;1.23;1.10;;;;;;;;;;5073206;28;20110;-48
2021/05/24 04:11:49;;;;;;;5.75;1.13;;;;;;;;;;5073253;28;20074;-48
2021/05/24 04:14:15;;;;;;;1.30;1.20;;;;;;;;;;5073162;28;20329;-48
2021/05/24 04:16:41;;;;;;;3.35;1.48;;;;;;;;;;5073306;28;20449;-48
2021/05/24 04:19:10;;;;;;;2.05;1.38;;;;;;;;;;5073008;28;20079;-49
2021/05/24 04:21:36;;;;;;;1.48;0.93;;;;;;;;;;5072945;28;20081;-49
2021/05/24 04:24:03;;;;;;;1.60;1.13;;;;;;;;;;5073314;28;20025;-48
2021/05/24 04:26:29;;;;;;;1.45;1.17;;;;;;;;;;5081923;28;20450;-48
2021/05/24 04:28:55;;;;;;;2.05;1.13;;;;;;;;;;5093171;28;20111;-49
2021/05/24 04:31:22;;;;;;;2.58;1.30;;;;;;;;;;5093051;28;20059;-49
2021/05/24 04:33:48;;;;;;;1.58;1.40;;;;;;;;;;5093100;28;20016;-48
2021/05/24 04:36:14;;;;;;;2.88;1.20;;;;;;;;;;5092833;28;20042;-48
2021/05/24 04:38:40;;;;;;;2.22;1.30;;;;;;;;;;5091929;28;20031;-49
2021/05/24 04:41:06;;;;;;;8.30;1.45;;;;;;;;;;5092464;28;20078;-48
2021/05/24 04:43:34;;;;;;;1.67;1.20;;;;;;;;;;5093107;28;20020;-49
2021/05/24 04:46:01;;;;;;;1.30;1.10;;;;;;;;;;5092794;28;20085;-48
2021/05/24 04:48:27;;;;;;;1.45;1.30;;;;;;;;;;5092859;28;20463;-49
2021/05/24 04:50:53;;;;;;;1.58;1.00;;;;;;;;;;5092118;28;20024;-48
2021/05/24 04:53:19;;;;;;;1.75;1.10;;;;;;;;;;5092154;28;20483;-49
2021/05/24 04:55:45;;;;;;;3.00;1.10;;;;;;;;;;5091772;28;20441;-48
2021/05/24 04:58:11;;;;;;;2.50;1.40;;;;;;;;;;5092610;28;20020;-48
2021/05/24 05:00:38;;;;;;;4.68;1.10;;;;;;;;;;5092099;28;20045;-48
2021/05/24 05:03:04;;;;;;;0.85;0.85;;;;;;;;;;5091970;28;20503;-48
2021/05/24 05:05:30;;;;;;;4.43;0.98;;;;;;;;;;5091959;28;20070;-48
2021/05/24 05:07:56;;;;;;;3.00;1.20;;;;;;;;;;5092556;28;20111;-48
2021/05/24 05:10:22;;;;;;;8.13;1.20;;;;;;;;;;5091228;28;20162;-48
2021/05/24 05:12:48;;;;;;;4.25;1.40;;;;;;;;;;5092266;28;20020;-48
2021/05/24 05:15:14;;;;;;;7.50;1.65;;;;;;;;;;5092163;28;20510;-49
2021/05/24 05:17:40;;;;;;;4.18;1.00;;;;;;;;;;5091985;28;20023;-48
2021/05/24 05:20:07;;;;;;;1.55;1.00;;;;;;;;;;5091644;28;20024;-49
2021/05/24 05:22:33;;;;;;;4.50;1.50;;;;;;;;;;5091460;28;20031;-48
2021/05/24 05:24:59;;;;;;;5.47;1.30;;;;;;;;;;5091405;28;20028;-48
2021/05/24 05:27:25;;;;;;;1.25;1.00;;;;;;;;;;5092088;28;20053;-49
2021/05/24 05:29:50;;;;;;;4.82;1.00;;;;;;;;;;5091909;28;20039;-48
2021/05/24 05:32:16;;;;;;;1.27;1.02;;;;;;;;;;5091570;28;20028;-48
2021/05/24 05:34:42;;;;;;;1.65;1.20;;;;;;;;;;5091932;28;20031;-48
2021/05/24 05:37:09;;;;;;;31.35;2.00;;;;;;;;;;5091881;28;20119;-48
2021/05/24 05:39:35;;;;;;;1.95;0.85;;;;;;;;;;5091574;28;20026;-48
2021/05/24 05:42:00;;;;;;;74.28;2.30;;;;;;;;;;5091018;28;20360;-48
2021/05/24 05:44:27;;;;;;;44.75;2.88;;;;;;;;;;5092046;28;20020;-48
2021/05/24 05:46:53;;;;;;;1.40;1.00;;;;;;;;;;5091235;28;20030;-48
2021/05/24 05:49:19;;;;;;;1.63;0.98;;;;;;;;;;5090581;28;20047;-48
2021/05/24 05:51:44;;;;;;;2.95;1.75;;;;;;;;;;5090666;28;20064;-48
2021/05/24 05:54:10;;;;;;;2.25;1.00;;;;;;;;;;5091630;28;20073;-49
2021/05/24 05:56:36;;;;;;;2.15;0.88;;;;;;;;;;5091522;28;20032;-49
2021/05/24 05:59:03;;;;;;;28.85;1.63;;;;;;;;;;5091708;28;20052;-48
2021/05/24 06:01:29;;;;;;;6.90;1.25;;;;;;;;;;5091253;28;20031;-48
2021/05/24 06:03:55;;;;;;;1.88;1.00;;;;;;;;;;5091428;28;20118;-49
2021/05/24 06:06:21;;;;;;;1.38;1.00;;;;;;;;;;5091480;28;20059;-48
2021/05/24 06:08:47;;;;;;;1.48;1.00;;;;;;;;;;5074673;28;20150;-48
2021/05/24 06:11:13;;;;;;;7.65;1.25;;;;;;;;;;5071062;28;20025;-48
2021/05/24 06:13:39;;;;;;;10.32;1.40;;;;;;;;;;5071252;28;20434;-49
2021/05/24 06:16:05;;;;;;;2.90;1.30;;;;;;;;;;5071089;28;20036;-49
2021/05/24 06:18:31;;;;;;;2.30;1.23;;;;;;;;;;5071395;28;20029;-49
2021/05/24 06:20:57;;;;;;;14.75;1.65;;;;;;;;;;5086866;28;20073;-48
2021/05/24 06:23:23;;;;;;;4.65;1.35;;;;;;;;;;5091280;28;20027;-48
2021/05/24 06:25:49;;;;;;;4.32;1.48;;;;;;;;;;5090996;28;20068;-48
2021/05/24 06:28:15;;;;;;;1.42;1.10;;;;;;;;;;5091608;28;20020;-49
2021/05/24 06:30:41;;;;;;;4.25;1.55;;;;;;;;;;5090644;28;20463;-49
2021/05/24 06:33:07;;;;;;;1.63;1.10;;;;;;;;;;5091376;28;20024;-49
2021/05/24 06:35:33;;;;;;;2.20;1.25;;;;;;;;;;5090973;28;20289;-48
2021/05/24 06:37:59;;;;;;;1.13;1.00;;;;;;;;;;5091437;28;20038;-48
2021/05/24 06:40:26;;;;;;;5.47;1.30;;;;;;;;;;5090855;28;20115;-48
2021/05/24 06:42:51;;;;;;;1.27;1.00;;;;;;;;;;5090757;28;20028;-48
2021/05/24 06:45:19;;;;;;;1.08;0.98;;;;;;;;;;5091115;28;20453;-49
2021/05/24 06:47:45;;;;;;;3.03;1.20;;;;;;;;;;5091467;28;20020;-48
2021/05/24 06:50:12;;;;;;;2.88;1.40;;;;;;;;;;5091119;28;20020;-49
2021/05/24 06:52:38;;;;;;;2.72;1.02;;;;;;;;;;5090880;28;20396;-48
2021/05/24 06:55:04;;;;;;;3.38;1.30;;;;;;;;;;5091069;28;20028;-48
2021/05/24 06:57:30;;;;;;;2.55;1.40;;;;;;;;;;5091104;28;20354;-48
2021/05/24 06:59:56;;;;;;;2.72;1.45;;;;;;;;;;5092291;28;20479;-49
2021/05/24 07:02:23;;;;;;;3.63;1.25;;;;;;;;;;5094632;28;20054;-48
2021/05/24 07:04:49;;;;;;;1.27;1.00;;;;;;;;;;5094911;28;20039;-48
2021/05/24 07:07:15;;;;;;;1.60;0.95;;;;;;;;;;5090766;28;20139;-48
2021/05/24 07:09:41;;;;;;;3.40;1.05;;;;;;;;;;5074649;28;20017;-48
2021/05/24 07:12:08;;;;;;;2.20;1.23;;;;;;;;;;5074227;28;20031;-49
2021/05/24 07:14:34;;;;;;;2.35;1.10;;;;;;;;;;5074295;28;20123;-49
2021/05/24 07:17:00;;;;;;;1.92;1.10;;;;;;;;;;5074584;28;20052;-48
2021/05/24 07:19:26;;;;;;;4.50;1.08;;;;;;;;;;5077827;28;20027;-48
2021/05/24 07:21:54;;;;;;;2.45;1.40;;;;;;;;;;5094481;28;20020;-49
2021/05/24 07:24:20;;;;;;;2.38;1.35;;;;;;;;;;5094665;28;20032;-48
2021/05/24 07:26:49;;;;;;;1.58;1.38;;;;;;;;;;5094499;28;20032;-48
2021/05/24 07:29:15;;;;;;;1.73;1.10;;;;;;;;;;5094342;28;20356;-48
2021/05/24 07:31:41;;;;;;;2.58;1.10;;;;;;;;;;5093908;28;20020;-48
2021/05/24 07:34:07;;;;;;;1.73;1.20;;;;;;;;;;5094338;28;20111;-48
2021/05/24 07:36:32;;;;;;;2.65;1.50;;;;;;;;;;5094699;28;20024;-48
2021/05/24 07:38:59;;;;;;;2.35;1.45;;;;;;;;;;5094618;28;20064;-48
2021/05/24 07:41:25;;;;;;;2.63;1.88;;;;;;;;;;5093675;28;20097;-49
2021/05/24 07:43:51;;;;;;;1.63;1.27;;;;;;;;;;5094432;28;20023;-48
2021/05/24 07:46:17;;;;;;;6.25;1.33;;;;;;;;;;5094604;28;20047;-48
2021/05/24 07:48:43;;;;;;;3.03;1.02;;;;;;;;;;5093356;28;20334;-47
2021/05/24 07:51:09;;;;;;;1.30;1.00;;;;;;;;;;5094035;28;20107;-48
2021/05/24 07:53:35;;;;;;;3.08;1.20;;;;;;;;;;5094243;28;20457;-48
2021/05/24 07:56:01;;;;;;;2.63;1.50;;;;;;;;;;5093341;28;20063;-48
2021/05/24 07:58:28;;;;;;;3.00;1.30;;;;;;;;;;5093812;28;20027;-48
2021/05/24 08:00:54;;;;;;;2.05;1.23;;;;;;;;;;5093096;28;20094;-47
2021/05/24 08:03:20;;;;;;;3.92;1.00;;;;;;;;;;5093046;28;20523;-48
2021/05/24 08:05:46;;;;;;;2.30;1.08;;;;;;;;;;5093757;28;20070;-48
2021/05/24 08:08:12;;;;;;;2.40;1.17;;;;;;;;;;5093206;28;20445;-47
2021/05/24 08:10:38;;;;;;;3.03;1.50;;;;;;;;;;5093244;28;20024;-49
2021/05/24 08:13:04;;;;;;;1.55;1.30;;;;;;;;;;5092809;28;20027;-48
2021/05/24 08:15:31;;;;;;;1.55;1.17;;;;;;;;;;5093127;28;20024;-49
2021/05/24 08:17:58;;;;;;;1.42;0.70;;;;;;;;;;5092725;28;20028;-48
2021/05/24 08:20:24;;;;;;;1.30;1.20;;;;;;;;;;5093257;28;20298;-48
2021/05/24 08:22:50;;;;;;;1.00;0.90;;;;;;;;;;5089737;28;20074;-48
2021/05/24 08:25:16;;;;;;;1.23;1.00;;;;;;;;;;5092998;28;20554;-49
2021/05/24 08:27:42;;;;;;;2.47;1.13;;;;;;;;;;5092630;28;20016;-48
2021/05/24 08:30:09;;;;;;;2.65;1.40;;;;;;;;;;5092784;28;20098;-48
2021/05/24 08:32:35;;;;;;;1.60;0.98;;;;;;;;;;5092502;28;20028;-48
2021/05/24 08:35:01;;;;;;;1.30;1.20;;;;;;;;;;5093066;28;20031;-48
2021/05/24 08:37:27;;;;;;;2.28;1.33;;;;;;;;;;5093419;28;20028;-49
2021/05/24 08:39:53;;;;;;;1.52;1.00;;;;;;;;;;5093036;28;20386;-48
2021/05/24 08:42:20;;;;;;;1.63;0.82;;;;;;;;;;5092921;28;20019;-49
2021/05/24 08:44:48;;;;;;;3.65;1.65;;;;;;;;;;5092966;28;20445;-48
2021/05/24 08:47:14;;;;;;;1.88;1.30;;;;;;;;;;5091568;28;20024;-48
2021/05/24 08:49:40;;;;;;;1.67;1.40;;;;;;;;;;5093374;28;20028;-49
2021/05/24 08:52:06;;;;;;;1.80;1.45;;;;;;;;;;5092760;28;20067;-49
2021/05/24 08:54:36;;;;;;;1.42;1.00;;;;;;;;;;5093197;28;20384;-48
2021/05/24 08:57:02;;;;;;;0.93;0.82;;;;;;;;;;5092604;28;20019;-49
2021/05/24 08:59:29;;;;;;;3.22;0.90;;;;;;;;;;5092657;28;20035;-48
2021/05/24 09:01:55;;;;;;;1.20;1.10;;;;;;;;;;5092758;28;20024;-48
2021/05/24 09:04:21;;;;;;;1.58;1.20;;;;;;;;;;5092608;28;20054;-49
2021/05/24 09:06:49;;;;;;;3.05;1.60;;;;;;;;;;5092734;28;20024;-48
2021/05/24 09:09:19;;;;;;;1.77;1.25;;;;;;;;;;5092820;28;20020;-49
2021/05/24 09:11:46;;;;;;;2.58;1.63;;;;;;;;;;5092412;28;20031;-48
2021/05/24 09:14:20;;;;;;;2.42;1.55;;;;;;;;;;5092292;28;20074;-49
2021/05/24 09:17:03;;;;;;;2.35;1.30;;;;;;;;;;5092692;28;20053;-49
2021/05/24 09:19:36;;;;;;;2.17;1.33;;;;;;;;;;5092661;28;20020;-49
2021/05/24 09:22:10;;;;;;;2.38;1.48;;;;;;;;;;5085702;28;20346;-48
2021/05/24 09:24:39;;;;;;;1.15;0.93;;;;;;;;;;5079789;28;20077;-48
2021/05/24 09:27:07;;;;;;;4.40;1.60;;;;;;;;;;5087765;28;20429;-48
2021/05/24 09:29:43;;;;;;;2.30;1.60;;;;;;;;;;5078317;28;20032;-48
2021/05/24 09:32:15;;;;;;;4.43;1.83;;;;;;;;;;5088276;28;20020;-49
2021/05/24 09:34:43;;;;;;;1.55;1.38;;;;;;;;;;5079288;28;20178;-47
2021/05/24 09:37:09;;;;;;;2.40;1.55;;;;;;;;;;5088684;28;20023;-48
2021/05/24 09:39:35;;;;;;;1.77;1.48;;;;;;;;;;5091687;28;20028;-47
2021/05/24 09:42:06;;;;;;;1.40;1.20;;;;;;;;;;5091626;28;20032;-49
2021/05/24 09:44:33;;;;;;;3.55;1.70;;;;;;;;;;5091806;28;20077;-48
2021/05/24 09:46:59;;;;;;;3.28;1.88;;;;;;;;;;5091659;28;20454;-49
2021/05/24 09:49:27;;;;;;;2.58;1.73;;;;;;;;;;5091719;28;20412;-49
2021/05/24 09:51:53;;;;;;;3.17;2.05;;;;;;;;;;5085699;28;20028;-48
2021/05/24 09:54:21;;;;;;;2.35;1.67;;;;;;;;;;5091047;28;20028;-48
2021/05/24 09:56:48;;;;;;;1.90;1.30;;;;;;;;;;5085482;28;20388;-49
2021/05/24 09:59:15;;;;;;;4.53;1.58;;;;;;;;;;5082312;28;20050;-48
2021/05/24 10:01:44;;;;;;;2.35;1.65;;;;;;;;;;5070915;28;20052;-48
2021/05/24 10:04:12;;;;;;;1.40;1.30;;;;;;;;;;5067976;28;20055;-48
2021/05/24 10:06:38;;;;;;;1.50;1.10;;;;;;;;;;5079655;28;20453;-48
2021/05/24 10:09:05;;;;;;;1.63;1.40;;;;;;;;;;5071508;28;20426;-48
2021/05/24 10:11:32;;;;;;;1.20;1.10;;;;;;;;;;5070804;28;20036;-48
2021/05/24 10:13:58;;;;;;;3.65;1.15;;;;;;;;;;5089027;28;20039;-48
2021/05/24 10:16:29;;;;;;;8.55;3.20;;;;;;;;;;5090287;28;20028;-48
2021/05/24 10:18:55;;;;;;;3.25;1.92;;;;;;;;;;5089141;28;20150;-48
2021/05/24 10:21:21;;;;;;;2.50;1.88;;;;;;;;;;5090805;28;20035;-49
2021/05/24 10:23:47;;;;;;;25.63;7.53;;;;;;;;;;5090205;28;20028;-49
2021/05/24 10:26:15;;;;;;;3.97;2.45;;;;;;;;;;5089368;28;20028;-49
2021/05/24 10:28:44;;;;;;;5.13;2.10;;;;;;;;;;5089378;28;20445;-49
2021/05/24 10:31:20;;;;;;;5.25;1.58;;;;;;;;;;5090843;28;20036;-49
2021/05/24 10:33:47;;;;;;;1.40;1.05;;;;;;;;;;5084793;28;20127;-48
2021/05/24 10:36:16;;;;;;;1.63;1.08;;;;;;;;;;5089870;28;20016;-48
2021/05/24 10:38:42;;;;;;;1.67;1.25;;;;;;;;;;5090698;28;20063;-48
2021/05/24 10:41:16;;;;;;;1.98;1.10;;;;;;;;;;5086013;28;20024;-48
2021/05/24 10:43:46;;;;;;;1.40;1.27;;;;;;;;;;5090157;28;20441;-48
2021/05/24 10:46:24;;;;;;;1.80;1.33;;;;;;;;;;5091111;28;20493;-47
2021/05/24 10:48:54;;;;;;;3.70;1.25;;;;;;;;;;5081254;28;20550;-48
2021/05/24 10:51:20;;;;;;;2.25;1.52;;;;;;;;;;5090395;28;20016;-49
2021/05/24 10:53:50;;;;;;;2.50;1.70;;;;;;;;;;5090435;28;20539;-48
2021/05/24 10:56:17;;;;;;;1.45;1.10;;;;;;;;;;5090328;28;20024;-48
2021/05/24 10:58:43;;;;;;;2.00;1.45;;;;;;;;;;5089802;28;20017;-48
2021/05/24 11:01:10;;;;;;;3.78;1.38;;;;;;;;;;5076851;28;20508;-48
2021/05/24 11:03:40;;;;;;;1.83;1.40;;;;;;;;;;5086027;28;20024;-49
2021/05/24 11:06:13;;;;;;;0.90;0.90;;;;;;;;;;5076738;28;20048;-48
2021/05/24 11:08:42;;;;;;;3.20;1.30;;;;;;;;;;5081093;28;20119;-49
2021/05/24 11:11:17;;;;;;;5.07;1.58;;;;;;;;;;5089538;28;20091;-48
2021/05/24 11:13:55;;;;;;;4.63;1.80;;;;;;;;;;5091086;28;20024;-49
2021/05/24 11:16:21;;;;;;;2.05;1.55;;;;;;;;;;5084053;28;20032;-49
2021/05/24 11:18:47;;;;;;;2.35;1.50;;;;;;;;;;5090655;28;20028;-49
2021/05/24 11:21:18;;;;;;;4.22;1.40;;;;;;;;;;5070687;28;20028;-48
2021/05/24 11:26:17;;;;;;;3.40;1.67;;;;;;;;;;5079346;28;20044;-49
2021/05/24 11:28:50;;;;;;;2.75;1.73;;;;;;;;;;5090825;28;20020;-50
2021/05/24 11:31:21;;;;;;;3.65;1.67;;;;;;;;;;5090247;28;20042;-49
2021/05/24 11:33:48;;;;;;;2.13;1.60;;;;;;;;;;5090221;28;20032;-49
2021/05/24 11:36:15;;;;;;;3.10;1.80;;;;;;;;;;5090629;28;20043;-49
2021/05/24 11:39:16;;;;;;;168.75;39.50;;;;;;;;;;5090134;28;20453;-49
2021/05/24 11:41:52;;;;;;;3.08;1.85;;;;;;;;;;5088815;28;20107;-49
2021/05/24 11:44:19;;;;;;;5.68;1.98;;;;;;;;;;5090357;28;20048;-48
2021/05/24 11:46:47;;;;;;;11.60;4.32;;;;;;;;;;5091704;28;20036;-49
2021/05/24 11:49:13;;;;;;;5.13;1.95;;;;;;;;;;5094137;28;20395;-48
2021/05/24 11:51:40;;;;;;;3.17;1.70;;;;;;;;;;5094057;28;20054;-48
2021/05/24 11:54:11;;;;;;;2.40;1.60;;;;;;;;;;5093969;28;20020;-49
2021/05/24 11:56:40;;;;;;;20.67;5.07;;;;;;;;;;5093818;28;20035;-49
2021/05/24 11:59:06;;;;;;;15.10;5.13;;;;;;;;;;5094469;28;20020;-48
2021/05/24 12:01:33;;;;;;;5.32;2.38;;;;;;;;;;5093498;28;20490;-49
2021/05/24 12:04:04;;;;;;;22.00;2.60;;;;;;;;;;5094002;28;20441;-48
2021/05/24 12:06:39;;;;;;;3.10;1.60;;;;;;;;;;5093607;28;20039;-49
2021/05/24 12:09:05;;;;;;;5.38;1.92;;;;;;;;;;5074413;28;20017;-48
2021/05/24 12:11:32;;;;;;;2.55;1.63;;;;;;;;;;5073346;28;20123;-49
2021/05/24 12:14:03;;;;;;;4.57;1.70;;;;;;;;;;5083064;28;20020;-48
2021/05/24 12:16:30;;;;;;;1.67;1.58;;;;;;;;;;5093301;28;20450;-48
2021/05/24 12:18:57;;;;;;;4.30;2.70;;;;;;;;;;5085229;28;20024;-48
2021/05/24 12:21:44;;;;;;;4.78;2.25;;;;;;;;;;5091971;28;20081;-49
2021/05/24 12:24:11;;;;;;;3.78;1.55;;;;;;;;;;5093581;28;20055;-48
2021/05/24 12:26:38;;;;;;;1.52;1.40;;;;;;;;;;5093400;28;20552;-49
2021/05/24 12:29:06;;;;;;;4.88;1.75;;;;;;;;;;5093669;28;20035;-49
2021/05/24 12:31:32;;;;;;;1.30;1.20;;;;;;;;;;5092955;28;20458;-49
2021/05/24 12:34:00;;;;;;;2.38;1.30;;;;;;;;;;5093142;28;20020;-49
2021/05/24 12:36:42;;;;;;;1.92;1.23;;;;;;;;;;5093052;28;20032;-48
2021/05/24 12:39:08;;;;;;;3.60;1.10;;;;;;;;;;5092912;28;20059;-49
2021/05/24 12:41:34;;;;;;;6.28;2.65;;;;;;;;;;5092594;28;20054;-49
2021/05/24 12:44:02;;;;;;;3.35;1.65;;;;;;;;;;5093141;28;20107;-49
2021/05/24 12:46:29;;;;;;;2.45;1.50;;;;;;;;;;5091559;28;20032;-49
2021/05/24 12:48:57;;;;;;;1.90;1.50;;;;;;;;;;5092749;28;20255;-47
2021/05/24 12:51:27;;;;;;;2.38;1.50;;;;;;;;;;5092676;28;20084;-48
2021/05/24 12:53:55;;;;;;;2.05;1.52;;;;;;;;;;5093550;28;20235;-48
2021/05/24 12:56:21;;;;;;;2.22;1.58;;;;;;;;;;5091196;28;20024;-50
2021/05/24 12:58:47;;;;;;;2.75;1.70;;;;;;;;;;5091526;28;20028;-50
2021/05/24 13:01:27;;;;;;;1.90;1.27;;;;;;;;;;5091167;28;20048;-50
2021/05/24 13:03:55;;;;;;;3.25;1.90;;;;;;;;;;5091944;28;20065;-55
2021/05/24 13:32:05;;;;;;;2.65;1.88;;;;;;;;;;5031844;28;20508;-58
2021/05/24 13:34:36;;;;;;;1.90;1.55;;;;;;;;;;5031462;28;20059;-56
2021/05/24 13:37:09;;;;;;;2.40;1.63;;;;;;;;;;5032022;28;20036;-47
2021/05/24 13:39:35;;;;;;;2.53;1.83;;;;;;;;;;5032008;28;20025;-47
2021/05/24 13:42:03;;;;;;;2.47;1.90;;;;;;;;;;5031272;28;20053;-54
2021/05/24 13:44:29;;;;;;;3.67;1.60;;;;;;;;;;5031795;28;20033;-48
2021/05/24 13:46:58;;;;;;;2.88;1.80;;;;;;;;;;5031380;28;20460;-48
2021/05/24 13:49:25;;;;;;;2.33;1.95;;;;;;;;;;5031297;28;20473;-48
2021/05/24 13:51:53;;;;;;;1.83;1.55;;;;;;;;;;5030840;28;20041;-49
2021/05/24 13:54:19;;;;;;;3.15;1.80;;;;;;;;;;5032027;28;20091;-48
2021/05/24 13:56:47;;;;;;;1.92;1.50;;;;;;;;;;5030541;28;20446;-48
2021/05/24 13:59:13;;;;;;;3.67;2.00;;;;;;;;;;5031428;28;20029;-48
2021/05/24 14:01:39;;;;;;;1.77;1.40;;;;;;;;;;5030898;28;20084;-49
2021/05/24 14:04:05;;;;;;;2.47;1.67;;;;;;;;;;5031598;28;20489;-48
2021/05/24 14:06:31;;;;;;;3.47;1.75;;;;;;;;;;5031196;28;20347;-48
2021/05/24 14:08:57;;;;;;;3.42;1.73;;;;;;;;;;5031117;28;20454;-49
2021/05/24 14:11:23;;;;;;;2.28;1.70;;;;;;;;;;5031114;28;20059;-48
2021/05/24 14:13:50;;;;;;;2.17;1.42;;;;;;;;;;5031286;28;20025;-48
2021/05/24 14:16:16;;;;;;;2.83;1.45;;;;;;;;;;5030888;28;20109;-48
2021/05/24 14:18:45;;;;;;;1.52;1.00;;;;;;;;;;5027135;28;20121;-48
2021/05/24 14:21:11;;;;;;;1.38;1.27;;;;;;;;;;5033651;28;20540;-48
2021/05/24 14:23:38;;;;;;;3.10;1.48;;;;;;;;;;5029950;28;20539;-48
2021/05/24 14:26:04;;;;;;;1.08;1.00;;;;;;;;;;5030500;28;20470;-49
2021/05/24 14:28:30;;;;;;;1.52;1.27;;;;;;;;;;5017398;28;20367;-48
2021/05/24 14:30:59;;;;;;;2.45;1.38;;;;;;;;;;5001574;28;20524;-47
2021/05/24 14:33:25;;;;;;;2.53;1.67;;;;;;;;;;5010436;28;20034;-48
2021/05/24 14:35:51;;;;;;;1.58;1.35;;;;;;;;;;5007343;28;20128;-48
2021/05/24 14:38:17;;;;;;;1.60;1.15;;;;;;;;;;5011002;28;20026;-48
2021/05/24 14:40:43;;;;;;;1.77;1.40;;;;;;;;;;5002973;28;20157;-48
2021/05/24 14:43:09;;;;;;;3.05;1.45;;;;;;;;;;5000886;28;20265;-48
2021/05/24 14:45:35;;;;;;;1.83;1.00;;;;;;;;;;5001968;28;20038;-48
2021/05/24 14:48:02;;;;;;;3.97;1.40;;;;;;;;;;5002559;28;20227;-48
2021/05/24 14:50:30;;;;;;;3.97;1.25;;;;;;;;;;5010481;28;20026;-48
2021/05/24 14:53:00;;;;;;;1.27;0.95;;;;;;;;;;5005063;28;20026;-48
2021/05/24 14:55:27;;;;;;;1.30;1.20;;;;;;;;;;5012641;28;20030;-48
2021/05/24 14:57:53;;;;;;;2.40;1.10;;;;;;;;;;5026531;28;20517;-48
2021/05/24 15:00:19;;;;;;;1.90;1.13;;;;;;;;;;5029552;28;20116;-48
2021/05/24 15:02:45;;;;;;;4.45;1.13;;;;;;;;;;5030473;28;20021;-48
2021/05/24 15:05:12;;;;;;;4.93;1.00;;;;;;;;;;5010188;28;20136;-48
2021/05/24 15:07:38;;;;;;;2.58;1.15;;;;;;;;;;5008262;28;20022;-48
2021/05/24 15:10:05;;;;;;;2.00;1.05;;;;;;;;;;5009411;28;20228;-48